createdAt,value
2019-03-25T00:01:28.793Z,40.87
2019-03-25T00:03:57.585Z,42.97
2019-03-25T00:06:25.484Z,37.13
2019-03-25T00:09:05.024Z,34.90
2019-03-25T00:11:23.478Z,35.37
2019-03-25T00:13:51.466Z,31.77
2019-03-25T00:16:19.475Z,30.17
2019-03-25T00:18:47.370Z,32.00
2019-03-25T00:21:15.250Z,29.63
2019-03-25T00:23:43.158Z,29.87
2019-03-25T00:26:11.218Z,29.90
2019-03-25T00:28:39.509Z,32.73
2019-03-25T00:31:07.638Z,31.43
2019-03-25T00:33:35.732Z,34.33
2019-03-25T00:36:03.683Z,36.57
2019-03-25T00:38:31.766Z,30.97
2019-03-25T00:41:00.238Z,33.33
2019-03-25T00:43:28.264Z,25.70
2019-03-25T00:45:56.642Z,23.20
2019-03-25T00:48:24.631Z,24.47
2019-03-25T00:50:52.618Z,28.20
2019-03-25T00:53:20.532Z,26.77
2019-03-25T00:55:48.810Z,27.47
2019-03-25T00:58:16.851Z,23.37
2019-03-25T01:00:45.863Z,27.83
2019-03-25T01:03:13.754Z,25.97
2019-03-25T01:05:41.811Z,18.57
2019-03-25T01:08:09.681Z,23.50
2019-03-25T01:10:37.645Z,18.07
2019-03-25T01:13:05.691Z,21.73
2019-03-25T01:15:34.643Z,20.10
2019-03-25T01:18:02.522Z,17.43
2019-03-25T01:20:30.487Z,19.50
2019-03-25T01:22:58.766Z,16.23
2019-03-25T01:25:26.618Z,17.63
2019-03-25T01:27:54.510Z,16.60
2019-03-25T01:30:22.371Z,15.77
2019-03-25T01:32:50.394Z,15.63
2019-03-25T01:35:18.485Z,14.40
2019-03-25T01:37:46.503Z,13.47
2019-03-25T01:40:14.566Z,13.97
2019-03-25T01:42:42.278Z,12.93
2019-03-25T01:45:10.378Z,14.83
2019-03-25T01:47:38.212Z,12.37
2019-03-25T01:50:06.761Z,13.53
2019-03-25T01:52:34.860Z,9.87
2019-03-25T01:55:12.923Z,12.37
2019-03-25T01:57:33.804Z,16.73
2019-03-25T02:00:02.121Z,9.53
2019-03-25T02:02:32.133Z,11.10
2019-03-25T02:05:00.359Z,5.73
2019-03-25T02:07:28.646Z,18.93
2019-03-25T02:09:56.726Z,8.97
2019-03-25T02:12:25.097Z,10.97
2019-03-25T02:14:53.176Z,10.37
2019-03-25T02:17:21.401Z,10.93
2019-03-25T02:19:49.616Z,12.47
2019-03-25T02:22:17.996Z,9.93
2019-03-25T02:24:46.377Z,9.27
2019-03-25T02:27:14.799Z,12.07
2019-03-25T02:29:43.130Z,8.50
2019-03-25T02:32:11.297Z,12.07
2019-03-25T02:34:39.676Z,13.90
2019-03-25T02:37:07.884Z,10.10
2019-03-25T02:39:36.259Z,11.53
2019-03-25T02:42:04.725Z,11.37
2019-03-25T02:44:32.890Z,9.40
2019-03-25T02:47:01.262Z,12.70
2019-03-25T02:49:29.646Z,11.03
2019-03-25T02:51:58.127Z,15.03
2019-03-25T02:54:26.813Z,13.93
2019-03-25T02:56:55.421Z,8.53
2019-03-25T02:59:23.357Z,13.50
2019-03-25T03:01:51.542Z,13.23
2019-03-25T03:04:19.844Z,8.10
2019-03-25T03:06:48.431Z,8.37
2019-03-25T03:09:16.508Z,8.33
2019-03-25T03:11:44.745Z,7.17
2019-03-25T03:14:15.392Z,10.87
2019-03-25T03:16:43.161Z,15.03
2019-03-25T03:19:11.232Z,10.67
2019-03-25T03:21:39.350Z,10.60
2019-03-25T03:24:07.661Z,11.53
2019-03-25T03:26:36.143Z,11.30
2019-03-25T03:29:04.490Z,11.43
2019-03-25T03:31:32.701Z,7.50
2019-03-25T03:34:01.364Z,14.27
2019-03-25T03:36:29.582Z,8.37
2019-03-25T03:38:57.804Z,9.27
2019-03-25T03:41:26.450Z,10.13
2019-03-25T03:43:54.703Z,10.27
2019-03-25T03:46:22.957Z,11.10
2019-03-25T03:48:51.184Z,11.07
2019-03-25T03:51:19.612Z,10.90
2019-03-25T03:53:47.990Z,9.07
2019-03-25T03:56:16.426Z,8.13
2019-03-25T03:58:45.381Z,13.63
2019-03-25T04:01:13.490Z,13.70
2019-03-25T04:03:41.413Z,10.60
2019-03-25T04:06:09.043Z,9.70
2019-03-25T04:08:36.967Z,13.43
2019-03-25T04:11:05.386Z,10.37
2019-03-25T04:13:33.414Z,9.17
2019-03-25T04:16:01.854Z,12.47
2019-03-25T04:18:29.775Z,11.03
2019-03-25T04:20:59.136Z,15.10
2019-03-25T04:23:27.186Z,14.30
2019-03-25T04:25:55.520Z,12.93
2019-03-25T04:28:23.428Z,13.50
2019-03-25T04:30:51.471Z,12.23
2019-03-25T04:33:19.394Z,11.00
2019-03-25T04:35:48.640Z,13.87
2019-03-25T04:38:16.663Z,17.77
2019-03-25T04:40:44.526Z,11.47
2019-03-25T04:43:12.547Z,10.00
2019-03-25T04:45:40.511Z,15.20
2019-03-25T04:48:08.926Z,12.77
2019-03-25T04:50:36.960Z,14.70
2019-03-25T04:53:04.848Z,16.67
2019-03-25T04:55:33.072Z,10.93
2019-03-25T04:58:00.962Z,9.03
2019-03-25T05:00:33.623Z,13.83
2019-03-25T05:03:01.646Z,12.70
2019-03-25T05:05:29.636Z,13.40
2019-03-25T05:07:57.607Z,12.50
2019-03-25T05:10:26.754Z,13.50
2019-03-25T05:12:54.463Z,14.90
2019-03-25T05:15:22.534Z,19.50
2019-03-25T05:17:50.514Z,13.93
2019-03-25T05:20:19.976Z,12.33
2019-03-25T05:22:47.755Z,13.60
2019-03-25T05:25:15.750Z,17.43
2019-03-25T05:27:43.761Z,12.37
2019-03-25T05:30:11.879Z,14.10
2019-03-25T05:32:39.656Z,19.87
2019-03-25T05:35:07.709Z,16.53
2019-03-25T05:37:35.771Z,15.43
2019-03-25T05:40:03.853Z,16.70
2019-03-25T05:42:31.929Z,12.33
2019-03-25T05:45:00.925Z,19.20
2019-03-25T05:47:28.780Z,14.50
2019-03-25T05:49:56.802Z,21.83
2019-03-25T05:52:24.967Z,15.67
2019-03-25T05:54:52.856Z,12.30
2019-03-25T05:57:22.011Z,13.73
2019-03-25T05:59:50.114Z,17.07
2019-03-25T06:02:18.300Z,10.90
2019-03-25T06:04:47.336Z,14.23
2019-03-25T06:07:15.370Z,16.80
2019-03-25T06:09:44.494Z,16.53
2019-03-25T06:12:12.549Z,12.03
2019-03-25T06:14:40.447Z,14.83
2019-03-25T06:17:08.481Z,18.87
2019-03-25T06:19:36.347Z,20.47
2019-03-25T06:22:04.217Z,15.13
2019-03-25T06:24:32.404Z,16.83
2019-03-25T06:27:00.777Z,14.23
2019-03-25T06:29:28.760Z,14.90
2019-03-25T06:31:56.609Z,10.27
2019-03-25T06:34:24.490Z,13.63
2019-03-25T06:36:52.545Z,13.37
2019-03-25T06:39:20.438Z,16.83
2019-03-25T06:41:48.314Z,14.63
2019-03-25T06:44:16.157Z,13.17
2019-03-25T06:46:44.017Z,16.43
2019-03-25T06:49:12.024Z,18.33
2019-03-25T06:51:40.054Z,14.83
2019-03-25T06:54:08.134Z,17.17
2019-03-25T06:56:36.188Z,17.97
2019-03-25T06:59:04.270Z,17.17
2019-03-25T07:01:32.366Z,16.93
2019-03-25T07:04:00.481Z,15.57
2019-03-25T07:06:28.416Z,17.53
2019-03-25T07:08:56.597Z,21.13
2019-03-25T07:11:25.114Z,14.07
2019-03-25T07:13:53.698Z,17.00
2019-03-25T07:16:21.963Z,15.43
2019-03-25T07:18:50.032Z,16.70
2019-03-25T07:21:20.444Z,18.50
2019-03-25T07:23:47.921Z,18.43
2019-03-25T07:26:15.921Z,16.77
2019-03-25T07:28:43.938Z,18.80
2019-03-25T07:31:12.805Z,16.60
2019-03-25T07:33:40.904Z,16.90
2019-03-25T07:36:08.924Z,24.10
2019-03-25T07:38:36.920Z,13.10
2019-03-25T07:41:04.926Z,20.07
2019-03-25T07:43:32.805Z,13.60
2019-03-25T07:46:00.560Z,17.53
2019-03-25T07:48:28.433Z,19.23
2019-03-25T07:50:57.352Z,22.70
2019-03-25T07:53:25.238Z,20.03
2019-03-25T07:55:53.281Z,23.10
2019-03-25T07:58:21.544Z,17.67
2019-03-25T08:00:49.393Z,14.17
2019-03-25T08:03:17.484Z,20.17
2019-03-25T08:05:45.483Z,17.97
2019-03-25T08:08:13.296Z,14.80
2019-03-25T08:10:41.354Z,13.37
2019-03-25T08:13:09.293Z,15.43
2019-03-25T08:15:37.503Z,11.80
2019-03-25T08:18:05.597Z,14.47
2019-03-25T08:20:33.567Z,12.93
2019-03-25T08:23:01.559Z,11.63
2019-03-25T08:25:29.539Z,12.83
2019-03-25T08:28:00.393Z,14.90
2019-03-25T08:30:27.450Z,10.77
2019-03-25T08:32:55.298Z,14.60
2019-03-25T08:35:23.186Z,14.33
2019-03-25T08:37:51.035Z,9.30
2019-03-25T08:40:19.066Z,11.30
2019-03-25T08:42:47.076Z,10.10
2019-03-25T08:45:15.096Z,8.70
2019-03-25T08:47:43.118Z,6.43
2019-03-25T08:50:11.682Z,9.87
2019-03-25T08:52:39.567Z,9.53
2019-03-25T08:55:07.918Z,9.77
2019-03-25T08:57:36.038Z,7.00
2019-03-25T09:00:05.043Z,7.10
2019-03-25T09:02:34.009Z,8.93
2019-03-25T09:05:02.014Z,9.27
2019-03-25T09:07:31.315Z,7.37
2019-03-25T09:09:59.312Z,5.47
2019-03-25T09:12:27.304Z,5.93
2019-03-25T09:14:55.134Z,6.33
2019-03-25T09:17:23.015Z,7.13
2019-03-25T09:19:50.935Z,5.40
2019-03-25T09:22:18.781Z,5.97
2019-03-25T09:24:46.819Z,10.57
2019-03-25T09:27:14.509Z,7.50
2019-03-25T09:29:42.457Z,11.97
2019-03-25T09:32:10.483Z,9.63
2019-03-25T09:34:38.378Z,13.17
2019-03-25T09:37:06.333Z,8.73
2019-03-25T09:39:34.341Z,8.63
2019-03-25T09:42:02.235Z,7.07
2019-03-25T09:44:30.211Z,7.67
2019-03-25T09:46:58.114Z,7.03
2019-03-25T09:49:26.504Z,8.27
2019-03-25T09:51:54.363Z,6.10
2019-03-25T09:54:22.165Z,9.20
2019-03-25T09:56:52.009Z,6.73
2019-03-25T09:59:20.012Z,5.63
2019-03-25T10:01:48.013Z,6.03
2019-03-25T10:04:16.335Z,7.97
2019-03-25T10:06:44.117Z,8.33
2019-03-25T10:09:13.225Z,11.13
2019-03-25T10:11:42.229Z,12.50
2019-03-25T10:14:10.367Z,8.53
2019-03-25T10:16:38.462Z,9.00
2019-03-25T10:19:06.441Z,17.13
2019-03-25T10:21:34.346Z,10.10
2019-03-25T10:24:02.451Z,10.63
2019-03-25T10:26:30.396Z,7.93
2019-03-25T10:28:58.283Z,9.07
2019-03-25T10:31:26.722Z,7.13
2019-03-25T10:33:54.830Z,9.37
2019-03-25T10:36:22.704Z,10.17
2019-03-25T10:38:50.729Z,8.37
2019-03-25T10:41:18.713Z,9.57
2019-03-25T10:43:46.593Z,7.77
2019-03-25T10:46:14.729Z,9.20
2019-03-25T10:48:42.553Z,8.77
2019-03-25T10:51:10.292Z,7.20
2019-03-25T10:53:40.038Z,13.77
2019-03-25T10:56:07.956Z,12.73
2019-03-25T10:58:36.012Z,14.57
2019-03-25T11:01:04.555Z,9.73
2019-03-25T11:03:32.698Z,10.93
2019-03-25T11:06:00.910Z,10.13
2019-03-25T11:08:28.854Z,11.60
2019-03-25T11:10:56.959Z,11.23
2019-03-25T11:13:26.249Z,8.67
2019-03-25T11:15:54.287Z,8.67
2019-03-25T11:18:22.303Z,10.07
2019-03-25T11:20:50.663Z,12.93
2019-03-25T11:23:18.642Z,6.27
2019-03-25T11:25:46.753Z,9.27
2019-03-25T11:28:14.640Z,8.80
2019-03-25T11:30:59.984Z,10.37
2019-03-25T11:33:28.251Z,6.77
2019-03-25T11:35:58.161Z,9.90
2019-03-25T11:38:26.108Z,12.03
2019-03-25T11:40:54.391Z,11.07
2019-03-25T11:43:22.770Z,11.83
2019-03-25T11:45:50.940Z,8.43
2019-03-25T11:48:18.823Z,13.77
2019-03-25T11:50:47.951Z,9.53
2019-03-25T11:53:15.775Z,7.17
2019-03-25T11:55:44.040Z,9.90
2019-03-25T11:58:11.990Z,10.53
2019-03-25T12:00:40.321Z,10.50
2019-03-25T12:03:08.654Z,12.73
2019-03-25T12:05:36.671Z,8.83
2019-03-25T12:08:05.169Z,10.07
2019-03-25T12:10:33.197Z,9.57
2019-03-25T12:13:01.102Z,9.17
2019-03-25T12:15:29.014Z,7.73
2019-03-25T12:17:57.013Z,7.60
2019-03-25T12:20:25.173Z,6.70
2019-03-25T12:22:53.082Z,6.43
2019-03-25T12:25:20.979Z,9.30
2019-03-25T12:27:48.979Z,9.33
2019-03-25T12:30:17.167Z,9.03
2019-03-25T12:32:45.199Z,6.63
2019-03-25T12:35:13.261Z,8.40
2019-03-25T12:37:41.160Z,7.57
2019-03-25T12:40:09.650Z,9.97
2019-03-25T12:42:37.635Z,3.60
2019-03-25T12:45:06.545Z,5.53
2019-03-25T12:47:34.766Z,4.80
2019-03-25T12:50:04.705Z,4.83
2019-03-25T12:52:33.073Z,6.23
2019-03-25T12:55:00.826Z,8.33
2019-03-25T12:57:30.006Z,8.07
2019-03-25T12:59:58.016Z,9.10
2019-03-25T13:02:25.891Z,6.30
2019-03-25T13:04:53.899Z,9.23
2019-03-25T13:07:21.953Z,9.90
2019-03-25T13:09:50.078Z,8.00
2019-03-25T13:12:17.935Z,7.10
2019-03-25T13:14:45.677Z,5.70
2019-03-25T13:17:13.895Z,6.90
2019-03-25T13:19:41.601Z,5.30
2019-03-25T13:22:09.673Z,6.07
2019-03-25T13:24:38.003Z,7.80
2019-03-25T13:27:05.895Z,11.17
2019-03-25T13:29:33.826Z,4.97
2019-03-25T13:32:01.692Z,7.43
2019-03-25T13:34:29.566Z,5.67
2019-03-25T13:36:57.439Z,3.10
2019-03-25T13:39:25.450Z,5.90
2019-03-25T13:41:53.397Z,5.87
2019-03-25T13:44:22.331Z,4.83
2019-03-25T13:46:50.319Z,5.60
2019-03-25T13:49:19.280Z,3.17
2019-03-25T13:51:47.267Z,6.43
2019-03-25T13:54:15.369Z,7.43
2019-03-25T13:56:43.369Z,6.43
2019-03-25T13:59:11.444Z,2.00
2019-03-25T14:01:39.578Z,6.43
2019-03-25T14:04:07.575Z,6.83
2019-03-25T14:06:35.528Z,6.63
2019-03-25T14:09:05.800Z,5.13
2019-03-25T14:11:34.607Z,4.73
2019-03-25T14:14:02.698Z,9.57
2019-03-25T14:16:30.615Z,7.30
2019-03-25T14:18:58.484Z,5.90
2019-03-25T14:21:26.463Z,2.03
2019-03-25T14:23:54.473Z,5.03
2019-03-25T14:26:22.331Z,8.97
2019-03-25T14:28:51.428Z,2.10
2019-03-25T14:31:19.455Z,3.57
2019-03-25T14:33:47.587Z,3.23
2019-03-25T14:36:15.957Z,1.20
2019-03-25T14:38:43.968Z,3.83
2019-03-25T14:41:11.808Z,5.23
2019-03-25T14:43:39.766Z,2.80
2019-03-25T14:46:07.753Z,3.00
2019-03-25T14:48:35.765Z,3.03
2019-03-25T14:51:03.904Z,1.70
2019-03-25T14:53:31.729Z,6.37
2019-03-25T14:55:59.608Z,5.67
2019-03-25T14:58:27.588Z,4.60
2019-03-25T15:00:55.690Z,5.17
2019-03-25T15:03:23.568Z,7.70
2019-03-25T15:05:51.565Z,4.03
2019-03-25T15:08:19.596Z,9.00
2019-03-25T15:10:53.559Z,3.93
2019-03-25T15:13:17.487Z,3.53
2019-03-25T15:15:45.523Z,6.43
2019-03-25T15:18:15.781Z,7.53
2019-03-25T15:20:43.359Z,4.40
2019-03-25T15:23:11.199Z,3.80
2019-03-25T15:25:39.193Z,4.50
2019-03-25T15:28:07.095Z,2.93
2019-03-25T15:30:36.491Z,5.70
2019-03-25T15:33:04.580Z,10.17
2019-03-25T15:35:32.459Z,9.77
2019-03-25T15:38:00.587Z,4.13
2019-03-25T15:40:28.770Z,3.73
2019-03-25T15:42:56.822Z,7.17
2019-03-25T15:45:25.150Z,5.90
2019-03-25T15:47:53.244Z,2.63
2019-03-25T15:50:22.211Z,3.93
2019-03-25T15:52:50.222Z,2.23
2019-03-25T15:55:18.089Z,1.57
2019-03-25T15:57:46.092Z,3.97
2019-03-25T16:00:15.765Z,3.20
2019-03-25T16:02:43.774Z,1.00
2019-03-25T16:05:11.698Z,3.07
2019-03-25T16:07:39.668Z,3.00
2019-03-25T16:10:08.144Z,4.53
2019-03-25T16:12:36.318Z,1.30
2019-03-25T16:15:05.127Z,1.93
2019-03-25T16:17:33.045Z,5.17
2019-03-25T16:20:01.082Z,2.50
2019-03-25T16:22:28.895Z,5.17
2019-03-25T16:24:57.158Z,2.47
2019-03-25T16:27:25.118Z,2.53
2019-03-25T16:29:53.865Z,4.70
2019-03-25T16:32:21.895Z,4.43
2019-03-25T16:34:49.808Z,3.93
2019-03-25T16:37:17.805Z,3.40
2019-03-25T16:39:45.774Z,2.20
2019-03-25T16:42:13.666Z,1.37
2019-03-25T16:44:41.677Z,2.77
2019-03-25T16:47:09.804Z,3.20
2019-03-25T16:49:37.754Z,3.77
2019-03-25T16:52:05.751Z,3.07
2019-03-25T16:54:33.932Z,5.37
2019-03-25T16:57:03.169Z,2.57
2019-03-25T16:59:31.005Z,4.17
2019-03-25T17:01:58.900Z,2.60
2019-03-25T17:04:27.052Z,3.10
2019-03-25T17:06:55.222Z,1.43
2019-03-25T17:09:23.177Z,3.40
2019-03-25T17:11:51.340Z,5.13
2019-03-25T17:14:19.410Z,2.23
2019-03-25T17:16:47.265Z,4.97
2019-03-25T17:19:15.256Z,2.90
2019-03-25T17:21:43.152Z,0.80
2019-03-25T17:24:11.153Z,2.30
2019-03-25T17:26:42.610Z,2.10
2019-03-25T17:29:09.220Z,1.70
2019-03-25T17:31:37.389Z,4.10
2019-03-25T17:34:05.441Z,8.07
2019-03-25T17:36:34.474Z,6.17
2019-03-25T17:39:03.801Z,4.37
2019-03-25T17:41:31.906Z,8.37
2019-03-25T17:43:59.993Z,5.63
2019-03-25T17:46:28.497Z,5.23
2019-03-25T17:48:56.507Z,4.43
2019-03-25T17:51:24.506Z,2.27
2019-03-25T17:53:52.460Z,3.53
2019-03-25T17:56:20.485Z,3.43
2019-03-25T17:58:49.352Z,2.17
2019-03-25T18:01:18.714Z,2.80
2019-03-25T18:03:46.890Z,4.50
2019-03-25T18:06:14.800Z,5.03
2019-03-25T18:08:42.817Z,3.77
2019-03-25T18:11:10.886Z,3.20
2019-03-25T18:13:39.809Z,5.10
2019-03-25T18:16:08.268Z,4.10
2019-03-25T18:18:37.208Z,7.67
2019-03-25T18:21:05.272Z,9.37
2019-03-25T18:23:33.143Z,5.60
2019-03-25T18:26:01.045Z,10.37
2019-03-25T18:28:29.205Z,8.30
2019-03-25T18:30:57.202Z,8.47
2019-03-25T18:33:25.218Z,4.70
2019-03-25T18:35:53.276Z,7.00
2019-03-25T18:38:21.235Z,8.87
2019-03-25T18:40:49.288Z,9.00
2019-03-25T18:43:17.428Z,6.63
2019-03-25T18:45:45.490Z,6.70
2019-03-25T18:48:13.373Z,6.63
2019-03-25T18:50:41.549Z,6.27
2019-03-25T18:53:09.410Z,6.40
2019-03-25T18:55:37.446Z,9.00
2019-03-25T18:58:05.381Z,8.27
2019-03-25T19:00:33.511Z,11.50
2019-03-25T19:03:01.851Z,5.43
2019-03-25T19:05:31.075Z,6.00
2019-03-25T19:08:00.650Z,5.73
2019-03-25T19:10:29.102Z,6.50
2019-03-25T19:12:57.595Z,5.63
2019-03-25T19:15:25.501Z,10.77
2019-03-25T19:17:53.570Z,4.67
2019-03-25T19:20:21.504Z,3.23
2019-03-25T19:22:49.804Z,7.60
2019-03-25T19:25:18.300Z,2.77
2019-03-25T19:27:46.213Z,3.97
2019-03-25T19:30:14.679Z,5.30
2019-03-25T19:32:42.703Z,6.07
2019-03-25T19:35:10.691Z,3.30
2019-03-25T19:37:38.653Z,4.87
2019-03-25T19:40:07.073Z,7.80
2019-03-25T19:42:35.227Z,4.90
2019-03-25T19:45:03.681Z,7.27
2019-03-25T19:47:32.343Z,4.10
2019-03-25T19:50:00.631Z,4.27
2019-03-25T19:52:28.734Z,3.70
2019-03-25T19:54:56.986Z,3.00
2019-03-25T19:57:24.953Z,3.83
2019-03-25T19:59:53.607Z,2.43
2019-03-25T20:02:22.160Z,6.50
2019-03-25T20:04:50.322Z,2.87
2019-03-25T20:07:18.341Z,3.93
2019-03-25T20:09:46.557Z,3.73
2019-03-25T20:12:14.665Z,1.13
2019-03-25T20:14:42.756Z,2.87
2019-03-25T20:17:10.926Z,1.13
2019-03-25T20:19:38.808Z,4.87
2019-03-25T20:22:07.006Z,3.93
2019-03-25T20:24:35.634Z,4.50
2019-03-25T20:27:03.936Z,12.37
2019-03-25T20:29:32.012Z,5.47
2019-03-25T20:32:01.904Z,3.93
2019-03-25T20:34:30.162Z,2.60
2019-03-25T20:36:58.229Z,2.07
2019-03-25T20:39:26.362Z,4.60
2019-03-25T20:41:54.311Z,6.27
2019-03-25T20:44:23.244Z,2.97
2019-03-25T20:46:51.395Z,1.43
2019-03-25T20:49:19.794Z,2.40
2019-03-25T20:51:47.926Z,3.50
2019-03-25T20:54:15.828Z,2.57
2019-03-25T20:56:43.700Z,3.07
2019-03-25T20:59:11.894Z,2.20
2019-03-25T21:01:39.993Z,3.17
2019-03-25T21:04:08.227Z,2.90
2019-03-25T21:06:36.932Z,2.80
2019-03-25T21:09:06.491Z,2.00
2019-03-25T21:11:34.770Z,3.70
2019-03-25T21:14:03.336Z,2.60
2019-03-25T21:16:32.580Z,2.73
2019-03-25T21:19:00.437Z,5.77
2019-03-25T21:21:28.501Z,2.57
2019-03-25T21:23:56.619Z,3.60
2019-03-25T21:26:24.481Z,4.03
2019-03-25T21:28:52.571Z,3.43
2019-03-25T21:31:21.699Z,6.43
2019-03-25T21:33:49.743Z,9.97
2019-03-25T21:36:18.092Z,6.13
2019-03-25T21:38:46.398Z,3.60
2019-03-25T21:41:14.413Z,4.50
2019-03-25T21:43:42.569Z,5.73
2019-03-25T21:46:10.454Z,4.73
2019-03-25T21:48:40.059Z,5.53
2019-03-25T21:51:08.152Z,7.37
2019-03-25T21:53:36.462Z,5.10
2019-03-25T21:56:04.599Z,6.23
2019-03-25T21:58:32.528Z,6.70
2019-03-25T22:01:01.077Z,6.70
2019-03-25T22:03:29.392Z,12.03
2019-03-25T22:05:57.630Z,10.03
2019-03-25T22:08:25.640Z,8.10
2019-03-25T22:10:53.619Z,8.30
2019-03-25T22:13:21.649Z,9.53
2019-03-25T22:15:49.620Z,9.40
2019-03-25T22:18:17.532Z,10.23
2019-03-25T22:20:45.605Z,10.07
2019-03-25T22:23:13.558Z,10.77
2019-03-25T22:25:41.586Z,9.20
2019-03-25T22:28:09.654Z,10.23
2019-03-25T22:30:38.348Z,9.67
2019-03-25T22:33:06.558Z,10.80
2019-03-25T22:35:34.543Z,9.20
2019-03-25T22:38:02.453Z,9.23
2019-03-25T22:40:31.094Z,10.83
2019-03-25T22:43:01.580Z,10.40
2019-03-25T22:45:33.120Z,9.07
2019-03-25T22:48:01.346Z,12.33
2019-03-25T22:50:31.216Z,12.63
2019-03-25T22:53:00.609Z,11.77
2019-03-25T22:55:29.484Z,12.27
2019-03-25T22:57:57.791Z,11.53
2019-03-25T23:00:27.894Z,11.80
2019-03-25T23:02:57.703Z,13.33
2019-03-25T23:05:26.302Z,15.17
2019-03-25T23:07:54.622Z,10.87
2019-03-25T23:10:22.822Z,12.93
2019-03-25T23:12:50.573Z,13.27
2019-03-25T23:15:19.136Z,10.83
2019-03-25T23:17:47.101Z,10.30
2019-03-25T23:20:15.784Z,11.57
2019-03-25T23:22:43.920Z,9.97
2019-03-25T23:25:11.733Z,12.23
2019-03-25T23:27:39.751Z,12.07
2019-03-25T23:30:08.549Z,11.93
2019-03-25T23:32:36.728Z,12.43
2019-03-25T23:35:05.217Z,9.87
2019-03-25T23:37:33.238Z,10.47
2019-03-25T23:40:01.289Z,12.13
2019-03-25T23:42:29.414Z,13.00
2019-03-25T23:44:57.410Z,11.60
2019-03-25T23:47:25.319Z,10.97
2019-03-25T23:49:53.513Z,9.77
2019-03-25T23:52:21.496Z,10.50
2019-03-25T23:54:49.412Z,13.57
2019-03-25T23:57:17.459Z,12.80
2019-03-25T23:59:45.482Z,12.23
